METAR ET TAF INFORMATION
METAR FOR ENSG
ADDS - METARS form results

(1440 UTC 15 September 2019)
Data provider http://aviationweather.gov/metar/data/
 
METAR text: ENSG 151420Z 24018G31KT 9999 RA FEW006 BKN021 08/07 Q0995 RMK WIND 3806FT 28056G70KT
Conditions at: ENSG (SOGNDAL/HAUKASEN, NO) observed 1420 UTC 15 September 2019
Temperature: 8.0°C (46°F)
Dewpoint: 7.0°C (45°F) [RH = 93%]
Pressure (altimeter): 29.38 inches Hg (995.0 mb)
Winds: from the WSW (240 degrees) at 21 MPH (18 knots; 9.3 m/s)
gusting to 36 MPH (31 knots; 15.9 m/s)
Visibility: 6 or more miles (10+ km)
Ceiling: 2100 feet AGL
Clouds: few clouds at 600 feet AGL
broken clouds at 2100 feet AGL
Weather: RA  (moderate rain)

METAR text: ENSG 151350Z 24021G32KT 9999 SHRA FEW006 BKN022 08/07 Q0995 RMK WIND 3806FT 28054G64KT
Conditions at: ENSG (SOGNDAL/HAUKASEN, NO) observed 1350 UTC 15 September 2019
Temperature: 8.0°C (46°F)
Dewpoint: 7.0°C (45°F) [RH = 93%]
Pressure (altimeter): 29.38 inches Hg (995.0 mb)
Winds: from the WSW (240 degrees) at 24 MPH (21 knots; 10.8 m/s)
gusting to 37 MPH (32 knots; 16.5 m/s)
Visibility: 6 or more miles (10+ km)
Ceiling: 2200 feet AGL
Clouds: few clouds at 600 feet AGL
broken clouds at 2200 feet AGL
Weather: SHRA  (rain showers)

 AÉROPORT DE AÉROPORT

 INFORMATIONS DE PISTE
Piste 06 Longueur de la piste 3150 ft Largeur de la piste 0 ft
Élévation de la piste 1619 ft Seuil de la piste déplacés 0 ft Runway heading 0
Piste 24 Longueur de la piste 3150 ft Largeur de la piste 0 ft
Élévation de la piste 1634 ft Seuil de la piste déplacés 0 ft Runway heading 0

 AÉROPORT FRÉQUENCES
Type AFIS Nom Sogndal Féquence 119.3 MHZ
Type INFO Nom Sogndal In Féquence 121.5 MHZ

 SIDA DE NAVIGATION
Type VOR-DME Nom Sogndal Féquence 114200 KHZ



Powered by Virtual Airlines Manager [v2.6.2]